sensor_id;sensor_type;location;lat;lon;timestamp;P1;durP1;ratioP1;P2;durP2;ratioP2
17496;SDS011;62150;43.582;1.456;2023-11-18T14:35:01;4.40;;;2.13;;
17496;SDS011;62150;43.582;1.456;2023-11-18T14:37:34;3.90;;;1.90;;
17496;SDS011;62150;43.582;1.456;2023-11-18T14:40:07;4.43;;;1.87;;
17496;SDS011;62150;43.582;1.456;2023-11-18T14:42:38;5.10;;;1.83;;
17496;SDS011;62150;43.582;1.456;2023-11-18T14:45:09;2.58;;;1.70;;
17496;SDS011;62150;43.582;1.456;2023-11-18T14:47:38;2.15;;;1.70;;
17496;SDS011;62150;43.582;1.456;2023-11-18T14:50:07;2.53;;;1.80;;
17496;SDS011;62150;43.582;1.456;2023-11-18T14:52:42;2.75;;;1.80;;
17496;SDS011;62150;43.582;1.456;2023-11-18T14:55:11;4.55;;;1.70;;
17496;SDS011;62150;43.582;1.456;2023-11-18T14:57:39;5.00;;;1.90;;
17496;SDS011;62150;43.582;1.456;2023-11-18T15:00:09;3.80;;;1.70;;
17496;SDS011;62150;43.582;1.456;2023-11-18T15:02:44;2.97;;;1.70;;
17496;SDS011;62150;43.582;1.456;2023-11-18T15:05:15;3.30;;;2.08;;
17496;SDS011;62150;43.582;1.456;2023-11-18T15:07:44;2.08;;;1.60;;
17496;SDS011;62150;43.582;1.456;2023-11-18T15:10:16;3.20;;;1.80;;
17496;SDS011;62150;43.582;1.456;2023-11-18T15:12:46;4.13;;;1.90;;
17496;SDS011;62150;43.582;1.456;2023-11-18T15:15:18;4.43;;;1.80;;
17496;SDS011;62150;43.582;1.456;2023-11-18T15:17:46;2.67;;;1.70;;
17496;SDS011;62150;43.582;1.456;2023-11-18T15:20:16;3.38;;;1.90;;
17496;SDS011;62150;43.582;1.456;2023-11-18T15:22:45;4.20;;;2.00;;
17496;SDS011;62150;43.582;1.456;2023-11-18T15:25:12;3.58;;;1.90;;
17496;SDS011;62150;43.582;1.456;2023-11-18T15:27:42;3.03;;;1.92;;
17496;SDS011;62150;43.582;1.456;2023-11-18T15:30:11;4.95;;;2.15;;
17496;SDS011;62150;43.582;1.456;2023-11-18T15:32:39;4.13;;;2.10;;
17496;SDS011;62150;43.582;1.456;2023-11-18T15:35:08;3.80;;;1.92;;
17496;SDS011;62150;43.582;1.456;2023-11-18T15:37:39;4.75;;;1.90;;
17496;SDS011;62150;43.582;1.456;2023-11-18T15:40:07;4.20;;;1.90;;
17496;SDS011;62150;43.582;1.456;2023-11-18T15:42:36;6.90;;;2.00;;
17496;SDS011;62150;43.582;1.456;2023-11-18T15:45:07;3.95;;;1.80;;
17496;SDS011;62150;43.582;1.456;2023-11-18T15:47:36;2.90;;;2.00;;
17496;SDS011;62150;43.582;1.456;2023-11-18T15:50:04;3.75;;;1.80;;
17496;SDS011;62150;43.582;1.456;2023-11-18T15:52:33;3.65;;;2.00;;
17496;SDS011;62150;43.582;1.456;2023-11-18T15:55:03;5.57;;;2.35;;
17496;SDS011;62150;43.582;1.456;2023-11-18T15:57:39;5.28;;;2.30;;
17496;SDS011;62150;43.582;1.456;2023-11-18T16:00:08;3.65;;;2.03;;
17496;SDS011;62150;43.582;1.456;2023-11-18T16:02:41;3.35;;;1.73;;
17496;SDS011;62150;43.582;1.456;2023-11-18T16:05:10;4.30;;;2.10;;
17496;SDS011;62150;43.582;1.456;2023-11-18T16:07:41;4.65;;;2.10;;
17496;SDS011;62150;43.582;1.456;2023-11-18T16:10:10;3.58;;;1.98;;
17496;SDS011;62150;43.582;1.456;2023-11-18T16:12:43;3.97;;;2.30;;
17496;SDS011;62150;43.582;1.456;2023-11-18T16:15:11;4.85;;;2.10;;
17496;SDS011;62150;43.582;1.456;2023-11-18T16:17:40;5.57;;;2.40;;
17496;SDS011;62150;43.582;1.456;2023-11-18T16:20:11;4.85;;;2.40;;
17496;SDS011;62150;43.582;1.456;2023-11-18T16:22:40;3.17;;;2.08;;
17496;SDS011;62150;43.582;1.456;2023-11-18T16:25:09;8.55;;;2.60;;
17496;SDS011;62150;43.582;1.456;2023-11-18T16:27:37;5.45;;;2.40;;
17496;SDS011;62150;43.582;1.456;2023-11-18T16:30:05;5.15;;;2.40;;
17496;SDS011;62150;43.582;1.456;2023-11-18T16:32:33;5.28;;;2.30;;
17496;SDS011;62150;43.582;1.456;2023-11-18T16:35:01;5.43;;;2.20;;
17496;SDS011;62150;43.582;1.456;2023-11-18T16:37:29;4.80;;;2.40;;
17496;SDS011;62150;43.582;1.456;2023-11-18T16:39:57;5.47;;;2.30;;
17496;SDS011;62150;43.582;1.456;2023-11-18T16:42:33;9.55;;;3.25;;
17496;SDS011;62150;43.582;1.456;2023-11-18T16:45:01;7.53;;;3.20;;
17496;SDS011;62150;43.582;1.456;2023-11-18T16:47:29;11.33;;;4.77;;
17496;SDS011;62150;43.582;1.456;2023-11-18T16:49:58;12.73;;;4.60;;
17496;SDS011;62150;43.582;1.456;2023-11-18T16:52:25;11.48;;;4.80;;
17496;SDS011;62150;43.582;1.456;2023-11-18T16:54:53;10.23;;;4.03;;
17496;SDS011;62150;43.582;1.456;2023-11-18T16:57:22;9.52;;;3.65;;
17496;SDS011;62150;43.582;1.456;2023-11-18T16:59:52;9.13;;;3.87;;
17496;SDS011;62150;43.582;1.456;2023-11-18T17:02:20;7.87;;;3.63;;
17496;SDS011;62150;43.582;1.456;2023-11-18T17:04:48;9.25;;;3.60;;
17496;SDS011;62150;43.582;1.456;2023-11-18T17:07:15;6.00;;;2.97;;
17496;SDS011;62150;43.582;1.456;2023-11-18T17:09:43;7.17;;;3.40;;
17496;SDS011;62150;43.582;1.456;2023-11-18T17:12:11;10.03;;;4.73;;
17496;SDS011;62150;43.582;1.456;2023-11-18T17:14:39;10.17;;;4.50;;
17496;SDS011;62150;43.582;1.456;2023-11-18T17:17:08;15.67;;;7.37;;
17496;SDS011;62150;43.582;1.456;2023-11-18T17:19:36;15.37;;;7.20;;
17496;SDS011;62150;43.582;1.456;2023-11-18T17:22:05;12.80;;;6.10;;
17496;SDS011;62150;43.582;1.456;2023-11-18T17:24:38;13.27;;;6.07;;
17496;SDS011;62150;43.582;1.456;2023-11-18T17:27:05;13.20;;;6.70;;
17496;SDS011;62150;43.582;1.456;2023-11-18T17:29:33;11.87;;;6.30;;
17496;SDS011;62150;43.582;1.456;2023-11-18T17:32:00;11.60;;;5.50;;
17496;SDS011;62150;43.582;1.456;2023-11-18T17:34:30;10.87;;;5.20;;
17496;SDS011;62150;43.582;1.456;2023-11-18T17:36:57;12.37;;;6.23;;
17496;SDS011;62150;43.582;1.456;2023-11-18T17:39:27;12.00;;;5.87;;
17496;SDS011;62150;43.582;1.456;2023-11-18T17:41:55;12.73;;;6.10;;
17496;SDS011;62150;43.582;1.456;2023-11-18T17:44:23;11.90;;;6.53;;
17496;SDS011;62150;43.582;1.456;2023-11-18T17:46:51;15.53;;;9.83;;
17496;SDS011;62150;43.582;1.456;2023-11-18T17:49:18;16.40;;;10.03;;
17496;SDS011;62150;43.582;1.456;2023-11-18T17:51:47;13.43;;;7.90;;
17496;SDS011;62150;43.582;1.456;2023-11-18T17:54:15;15.07;;;8.60;;
17496;SDS011;62150;43.582;1.456;2023-11-18T17:56:42;18.60;;;12.30;;
17496;SDS011;62150;43.582;1.456;2023-11-18T17:59:10;19.87;;;13.13;;
17496;SDS011;62150;43.582;1.456;2023-11-18T18:01:37;19.47;;;12.50;;
17496;SDS011;62150;43.582;1.456;2023-11-18T18:04:05;17.50;;;10.97;;
17496;SDS011;62150;43.582;1.456;2023-11-18T18:06:33;17.07;;;10.03;;
17496;SDS011;62150;43.582;1.456;2023-11-18T18:09:02;16.13;;;9.63;;
17496;SDS011;62150;43.582;1.456;2023-11-18T18:11:29;15.77;;;9.23;;
17496;SDS011;62150;43.582;1.456;2023-11-18T18:13:57;15.77;;;9.37;;
17496;SDS011;62150;43.582;1.456;2023-11-18T18:16:24;15.33;;;9.67;;
17496;SDS011;62150;43.582;1.456;2023-11-18T18:18:52;17.07;;;10.40;;
17496;SDS011;62150;43.582;1.456;2023-11-18T18:21:22;17.77;;;10.40;;
17496;SDS011;62150;43.582;1.456;2023-11-18T18:23:49;18.80;;;10.57;;
17496;SDS011;62150;43.582;1.456;2023-11-18T18:26:18;16.37;;;10.77;;
17496;SDS011;62150;43.582;1.456;2023-11-18T18:28:46;18.40;;;11.73;;
17496;SDS011;62150;43.582;1.456;2023-11-18T18:31:14;19.60;;;11.40;;
17496;SDS011;62150;43.582;1.456;2023-11-18T18:33:41;19.33;;;11.47;;
17496;SDS011;62150;43.582;1.456;2023-11-18T18:36:09;18.30;;;11.27;;
17496;SDS011;62150;43.582;1.456;2023-11-18T18:38:36;18.67;;;10.53;;
17496;SDS011;62150;43.582;1.456;2023-11-18T18:41:04;16.27;;;10.23;;
17496;SDS011;62150;43.582;1.456;2023-11-18T18:43:33;17.23;;;10.37;;
17496;SDS011;62150;43.582;1.456;2023-11-18T18:46:01;16.53;;;10.50;;
17496;SDS011;62150;43.582;1.456;2023-11-18T18:48:29;17.87;;;10.50;;
17496;SDS011;62150;43.582;1.456;2023-11-18T18:50:57;18.13;;;11.20;;
17496;SDS011;62150;43.582;1.456;2023-11-18T18:53:24;16.63;;;10.40;;
17496;SDS011;62150;43.582;1.456;2023-11-18T18:55:52;18.70;;;10.93;;
17496;SDS011;62150;43.582;1.456;2023-11-18T18:58:19;17.20;;;10.93;;
17496;SDS011;62150;43.582;1.456;2023-11-18T19:00:48;17.73;;;11.23;;
17496;SDS011;62150;43.582;1.456;2023-11-18T19:03:17;19.47;;;11.57;;
17496;SDS011;62150;43.582;1.456;2023-11-18T19:05:46;20.40;;;12.37;;
17496;SDS011;62150;43.582;1.456;2023-11-18T19:08:14;30.97;;;18.33;;
17496;SDS011;62150;43.582;1.456;2023-11-18T19:10:45;26.93;;;17.60;;
17496;SDS011;62150;43.582;1.456;2023-11-18T19:13:12;25.93;;;15.80;;
17496;SDS011;62150;43.582;1.456;2023-11-18T19:15:41;27.00;;;16.93;;
17496;SDS011;62150;43.582;1.456;2023-11-18T19:18:10;27.07;;;16.37;;
17496;SDS011;62150;43.582;1.456;2023-11-18T19:20:38;25.43;;;16.10;;
17496;SDS011;62150;43.582;1.456;2023-11-18T19:23:05;23.60;;;16.10;;
17496;SDS011;62150;43.582;1.456;2023-11-18T19:25:33;25.23;;;16.47;;
17496;SDS011;62150;43.582;1.456;2023-11-18T19:28:00;25.23;;;16.13;;
17496;SDS011;62150;43.582;1.456;2023-11-18T19:30:28;28.10;;;17.80;;
17496;SDS011;62150;43.582;1.456;2023-11-18T19:32:56;26.67;;;18.13;;
17496;SDS011;62150;43.582;1.456;2023-11-18T19:35:24;29.17;;;18.20;;
17496;SDS011;62150;43.582;1.456;2023-11-18T19:37:56;26.77;;;18.03;;
17496;SDS011;62150;43.582;1.456;2023-11-18T19:40:25;27.33;;;18.07;;
17496;SDS011;62150;43.582;1.456;2023-11-18T19:42:53;25.07;;;18.07;;
17496;SDS011;62150;43.582;1.456;2023-11-18T19:45:20;25.53;;;17.20;;
17496;SDS011;62150;43.582;1.456;2023-11-18T19:47:48;26.47;;;17.93;;
17496;SDS011;62150;43.582;1.456;2023-11-18T19:50:16;24.37;;;17.73;;
17496;SDS011;62150;43.582;1.456;2023-11-18T19:52:45;24.93;;;17.73;;
17496;SDS011;62150;43.582;1.456;2023-11-18T19:55:12;24.30;;;16.53;;
17496;SDS011;62150;43.582;1.456;2023-11-18T19:57:42;23.73;;;16.33;;
17496;SDS011;62150;43.582;1.456;2023-11-18T20:00:10;24.07;;;16.37;;
17496;SDS011;62150;43.582;1.456;2023-11-18T20:02:42;24.80;;;17.20;;
17496;SDS011;62150;43.582;1.456;2023-11-18T20:05:10;24.30;;;16.17;;
17496;SDS011;62150;43.582;1.456;2023-11-18T20:07:37;24.50;;;17.03;;
17496;SDS011;62150;43.582;1.456;2023-11-18T20:10:08;24.10;;;16.63;;
17496;SDS011;62150;43.582;1.456;2023-11-18T20:12:37;24.63;;;16.63;;
17496;SDS011;62150;43.582;1.456;2023-11-18T20:15:05;25.70;;;15.87;;
17496;SDS011;62150;43.582;1.456;2023-11-18T20:17:36;26.00;;;16.87;;
17496;SDS011;62150;43.582;1.456;2023-11-18T20:20:04;24.37;;;16.43;;
17496;SDS011;62150;43.582;1.456;2023-11-18T20:22:33;25.00;;;16.80;;
17496;SDS011;62150;43.582;1.456;2023-11-18T20:25:02;23.77;;;16.80;;
17496;SDS011;62150;43.582;1.456;2023-11-18T20:27:33;26.40;;;16.33;;
17496;SDS011;62150;43.582;1.456;2023-11-18T20:30:01;22.10;;;16.13;;
17496;SDS011;62150;43.582;1.456;2023-11-18T20:32:30;24.87;;;16.37;;
17496;SDS011;62150;43.582;1.456;2023-11-18T20:34:59;24.93;;;16.53;;
17496;SDS011;62150;43.582;1.456;2023-11-18T20:37:26;25.03;;;17.07;;
17496;SDS011;62150;43.582;1.456;2023-11-18T20:39:54;25.27;;;17.30;;
17496;SDS011;62150;43.582;1.456;2023-11-18T20:42:23;26.20;;;17.10;;
17496;SDS011;62150;43.582;1.456;2023-11-18T20:44:52;24.37;;;16.93;;
17496;SDS011;62150;43.582;1.456;2023-11-18T20:47:20;27.60;;;17.93;;
17496;SDS011;62150;43.582;1.456;2023-11-18T20:49:48;24.40;;;17.50;;
17496;SDS011;62150;43.582;1.456;2023-11-18T20:52:16;25.57;;;16.83;;
17496;SDS011;62150;43.582;1.456;2023-11-18T20:54:43;24.60;;;16.43;;
17496;SDS011;62150;43.582;1.456;2023-11-18T20:57:11;26.40;;;17.80;;
17496;SDS011;62150;43.582;1.456;2023-11-18T20:59:39;28.40;;;17.93;;
17496;SDS011;62150;43.582;1.456;2023-11-18T21:02:09;26.20;;;17.80;;
17496;SDS011;62150;43.582;1.456;2023-11-18T21:04:38;27.50;;;18.67;;
17496;SDS011;62150;43.582;1.456;2023-11-18T21:07:05;27.13;;;18.87;;
17496;SDS011;62150;43.582;1.456;2023-11-18T21:09:34;30.67;;;20.20;;
17496;SDS011;62150;43.582;1.456;2023-11-18T21:12:04;31.23;;;20.97;;
17496;SDS011;62150;43.582;1.456;2023-11-18T21:14:32;30.40;;;21.23;;
17496;SDS011;62150;43.582;1.456;2023-11-18T21:17:00;34.93;;;23.10;;
17496;SDS011;62150;43.582;1.456;2023-11-18T21:19:32;35.20;;;23.50;;
17496;SDS011;62150;43.582;1.456;2023-11-18T21:21:59;37.47;;;24.70;;
17496;SDS011;62150;43.582;1.456;2023-11-18T21:24:27;32.83;;;22.80;;
17496;SDS011;62150;43.582;1.456;2023-11-18T21:26:54;32.73;;;22.27;;
17496;SDS011;62150;43.582;1.456;2023-11-18T21:29:22;32.03;;;21.43;;
17496;SDS011;62150;43.582;1.456;2023-11-18T21:31:49;27.97;;;18.47;;
17496;SDS011;62150;43.582;1.456;2023-11-18T21:34:17;28.87;;;18.30;;
17496;SDS011;62150;43.582;1.456;2023-11-18T21:36:46;26.37;;;16.53;;
17496;SDS011;62150;43.582;1.456;2023-11-18T21:39:13;27.17;;;17.17;;
17496;SDS011;62150;43.582;1.456;2023-11-18T21:41:43;28.07;;;18.23;;
17496;SDS011;62150;43.582;1.456;2023-11-18T21:44:10;29.27;;;20.43;;
17496;SDS011;62150;43.582;1.456;2023-11-18T21:46:38;28.90;;;19.17;;
17496;SDS011;62150;43.582;1.456;2023-11-18T21:49:05;28.70;;;19.53;;
17496;SDS011;62150;43.582;1.456;2023-11-18T21:51:34;27.27;;;19.83;;
17496;SDS011;62150;43.582;1.456;2023-11-18T21:54:03;27.00;;;17.30;;
17496;SDS011;62150;43.582;1.456;2023-11-18T21:56:33;24.57;;;17.10;;
17496;SDS011;62150;43.582;1.456;2023-11-18T21:59:00;26.37;;;15.80;;
17496;SDS011;62150;43.582;1.456;2023-11-18T22:01:28;22.87;;;16.00;;
17496;SDS011;62150;43.582;1.456;2023-11-18T22:03:56;26.80;;;16.47;;
17496;SDS011;62150;43.582;1.456;2023-11-18T22:06:24;25.30;;;15.60;;
17496;SDS011;62150;43.582;1.456;2023-11-18T22:08:51;24.90;;;16.63;;
17496;SDS011;62150;43.582;1.456;2023-11-18T22:11:20;25.33;;;16.43;;
17496;SDS011;62150;43.582;1.456;2023-11-18T22:13:49;24.70;;;17.00;;
17496;SDS011;62150;43.582;1.456;2023-11-18T22:16:17;24.87;;;16.80;;
17496;SDS011;62150;43.582;1.456;2023-11-18T22:18:45;25.43;;;17.23;;
17496;SDS011;62150;43.582;1.456;2023-11-18T22:21:16;25.67;;;17.07;;
17496;SDS011;62150;43.582;1.456;2023-11-18T22:23:45;24.70;;;16.33;;
17496;SDS011;62150;43.582;1.456;2023-11-18T22:26:12;25.07;;;16.23;;
17496;SDS011;62150;43.582;1.456;2023-11-18T22:28:44;25.03;;;15.87;;
17496;SDS011;62150;43.582;1.456;2023-11-18T22:31:12;24.47;;;15.03;;
17496;SDS011;62150;43.582;1.456;2023-11-18T22:33:39;26.00;;;15.67;;
17496;SDS011;62150;43.582;1.456;2023-11-18T22:36:08;25.87;;;17.00;;
17496;SDS011;62150;43.582;1.456;2023-11-18T22:38:36;27.73;;;17.17;;
17496;SDS011;62150;43.582;1.456;2023-11-18T22:41:04;28.10;;;17.03;;
17496;SDS011;62150;43.582;1.456;2023-11-18T22:43:34;25.17;;;16.07;;
17496;SDS011;62150;43.582;1.456;2023-11-18T22:46:03;24.03;;;15.60;;
